Weather observations for the past three days for
Boca Raton, Boca Raton Airport
Imperial (Metric)
Date Time (edt) Wind (mph) Vis. (mi.) Weather Sky Cond. Temperature (ºF) Relative Humidity Wind Chill (°F) Heat Index (°F) Pressure Precipitation (in)
Air Dwpt 6 hour altimeter (in) sea level (mb) 1 hr 3 hr 6 hr
Max. Min.
10 11:53 SE 12 G 18 10.00 Partly Cloudy SCT020 SCT050 87.8 73.4 62% 96 30.04 0.0
10 10:53 SE 12 G 18 10.00 Mostly Cloudy SCT022CB BKN049 86 75.2 70% 95 30.03 0.0
10 09:53 S 7 10.00 Mostly Cloudy FEW022 BKN030 86 75.2 70% 95 30.03 0.0
10 08:53 SE 7 10.00 Partly Cloudy FEW018 SCT040 84.2 75.2 74% 92 30.02 0.0
10 07:53 S 3 10.00 A Few Clouds FEW020 FEW040 82.4 77 84% 91 30 0.0
10 07:00 S 5 10.00 A Few Clouds FEW020 77 75.2 94% 78 29.98 0.0
10 06:15 SE 2 10.00 Fair CLR 75.2 73.4 94% 74 29.97 0.0
10 05:55 S 2 10.00 Fair CLR 77 73.4 89% 78 29.97 0.0
10 05:35 SE 1 10.00 Fair CLR 77 73.4 89% 78 29.97 0.0
10 05:15 Calm 10.00 Fair CLR 75.2 73.4 94% 74 29.96 0.0
10 04:55 Calm 10.00 Partly Cloudy SCT065 75.2 73.4 94% 74 29.96 0.0
10 04:35 Calm 10.00 A Few Clouds FEW065 77 73.4 89% 78 29.96 0.0
10 04:15 Calm 10.00 Fair CLR 77 71.6 83% 78 29.96 0.0
10 03:55 N 1 10.00 Fair CLR 77 71.6 83% 78 29.96 0.0
10 03:35 NW 1 10.00 A Few Clouds FEW070 77 71.6 83% 78 29.96 0.0
10 03:15 SW 1 10.00 Partly Cloudy SCT070 77 71.6 83% 78 29.96 0.0
10 02:55 SW 2 10.00 Partly Cloudy SCT070 77 71.6 83% 78 29.96 0.0
10 02:35 W 3 10.00 Partly Cloudy SCT070 78.8 71.6 79% 82 29.97 0.0
10 02:15 Calm 10.00 Mostly Cloudy BKN070 78.8 71.6 79% 82 29.97 0.0
10 01:55 W 2 10.00 Partly Cloudy SCT080 80.6 71.6 83.3 80.4 74% 85 29.97 0.0
10 01:35 S 3 10.00 Overcast SCT065 OVC075 80.6 71.6 74% 85 29.98 0.0
10 01:15 S 2 10.00 Overcast OVC065 82.4 71.6 70% 87 29.99 0.0
10 00:55 S 5 10.00 Overcast OVC065 82.4 71.6 70% 87 29.99 0.0
10 00:35 SW 5 10.00 Overcast OVC055 82.4 71.6 70% 87 29.99 0.0
10 00:15 SW 3 10.00 Overcast BKN055 OVC075 82.4 71.6 70% 87 29.99 0.0
09 23:55 S 3 10.00 Overcast BKN060 OVC070 82.4 71.6 70% 87 29.99 0.0
09 23:15 Vrbl 6 10.00 Overcast OVC050 82.4 73.4 74% 88 29.98 0.0
09 22:53 S 6 10.00 Partly Cloudy SCT050 82.4 73.4 74% 88 29.98 0.0
09 21:53 S 8 10.00 Overcast OVC050 82.4 73.4 74% 88 29.96 0.0
09 20:53 S 9 G 17 10.00 Fair CLR 82.4 73.4 74% 88 29.93 0.0
09 19:53 S 14 G 22 10.00 Partly Cloudy SCT110 84.2 73.4 70% 91 29.9 0.0
09 18:53 S 17 G 24 10.00 Partly Cloudy SCT045 84.2 73.4 70% 91 29.89 0.0
09 17:53 S 17 G 25 10.00 Partly Cloudy SCT045 87.8 73.4 62% 96 29.88 0.0
09 16:53 S 15 G 24 10.00 Partly Cloudy SCT040 87.8 71.6 59% 94 29.89 0.0
09 15:53 SE 16 G 23 10.00 Partly Cloudy SCT040 89.6 73.4 59% 98 29.9 0.0
09 14:53 S 12 G 20 10.00 Partly Cloudy SCT040 89.6 71.6 55% 96 29.92 0.0
09 13:53 S 10 G 18 10.00 Partly Cloudy SCT036 89.6 73.4 59% 98 29.93 0.0
09 12:53 SE 10 10.00 Partly Cloudy SCT040 89.6 71.6 55% 96 29.95 0.0
09 11:53 S 8 G 16 10.00 Partly Cloudy SCT036 89.6 73.4 59% 98 29.97 0.0
09 10:53 S 9 10.00 A Few Clouds FEW036 87.8 73.4 62% 96 29.96 0.0
09 09:53 SE 9 10.00 A Few Clouds FEW028 86 73.4 66% 93 29.96 0.0
09 08:53 Vrbl 3 10.00 A Few Clouds FEW020 82.4 75.2 79% 89 29.95 0.0
09 07:53 SW 3 10.00 Fair CLR 78.8 75.2 89% 82 29.96 0.0
09 07:00 Calm 10.00 A Few Clouds FEW004 77 75.2 94% 78 29.95 0.0
09 06:15 W 5 7.00 Partly Cloudy SCT006 77 75.2 94% 78 29.94 0.0
09 05:55 W 5 8.00 Overcast OVC004 77 75.2 94% 78 29.94 0.0
09 05:36 W 5 7.00 Mostly Cloudy BKN004 BKN018 77 75.2 94% 78 29.93 0.0
09 05:15 W 6 8.00 Mostly Cloudy SCT004 BKN022 77 75.2 94% 78 29.93 0.0
09 04:55 W 5 10.00 Mostly Cloudy BKN020 BKN025 77 75.2 94% 78 29.93 0.0
09 04:35 NW 3 10.00 Overcast OVC018 78.8 75.2 89% 82 29.93 0.0
09 03:55 W 3 10.00 Mostly Cloudy BKN014 77 75.2 94% 78 29.93 0.0
09 03:35 SW 2 10.00 Mostly Cloudy BKN014 78.8 75.2 89% 82 29.93 0.0
09 03:15 S 2 10.00 Mostly Cloudy BKN014 78.8 75.2 89% 82 29.93 0.0
09 02:55 S 5 10.00 Partly Cloudy SCT014 78.8 75.2 89% 82 29.93 0.0
09 02:35 S 5 10.00 A Few Clouds FEW013 78.8 75.2 89% 82 29.94 0.0
09 02:15 S 5 10.00 Fair CLR 78.8 75.2 89% 82 29.94 0.0
09 01:55 SE 6 10.00 A Few Clouds FEW013 FEW049 78.8 75.2 81.1 79.2 89% 82 29.94 0.0
09 01:35 S 8 10.00 Mostly Cloudy BKN013 80.6 75.2 84% 86 29.95 0.0
09 01:15 SE 8 10.00 Partly Cloudy SCT011 78.8 75.2 89% 82 29.95 0.0
09 00:55 SE 5 10.00 Partly Cloudy SCT011 78.8 77 94% 83 29.96 0.0
09 00:35 SE 6 10.00 Partly Cloudy SCT011 78.8 77 94% 83 29.96 0.0
09 00:15 SE 6 10.00 A Few Clouds FEW011 78.8 75.2 89% 82 29.97 0.0
08 23:55 SE 6 10.00 Fair CLR 78.8 75.2 89% 82 29.97 0.0
08 23:35 SE 6 10.00 Fair CLR 78.8 75.2 89% 82 29.97 0.0
08 23:15 SE 5 10.00 Fair CLR 78.8 75.2 89% 82 29.97 0.0
08 22:53 SE 6 10.00 Fair CLR 80.6 75.2 84% 86 29.97 0.0
08 19:53 E 8 10.00 Fair CLR 80.6 73.4 79% 85 29.92 0.0
08 18:53 E 10 10.00 Fair CLR 82.4 75.2 79% 89 29.91 0.0
08 17:53 E 15 G 20 10.00 A Few Clouds FEW040 84.2 75.2 74% 92 29.91 0.0
08 16:53 E 9 G 16 10.00 A Few Clouds FEW024 84.2 73.4 70% 91 29.92 0.0
08 15:53 E 10 G 17 10.00 A Few Clouds FEW040 86 71.6 62% 92 29.94 0.0
08 14:53 E 13 10.00 A Few Clouds FEW036 86 69.8 59% 91 29.95 0.0
08 13:53 E 10 10.00 Fair CLR 87.8 68 52% 91 29.97 0.0
08 12:53 E 9 G 17 10.00 Fair CLR 86 69.8 59% 91 30 0.0
08 11:53 E 9 G 17 10.00 Fair CLR 86 69.8 59% 91 30 0.0
08 10:53 N 12 10.00 Fair CLR 87.8 68 52% 91 30.01 0.0
08 09:53 N 13 10.00 Fair CLR 84.2 68 58% 87 30 0.0
08 08:53 NW 9 10.00 Fair CLR 80.6 68 66% 83 30 0.0
08 07:53 NW 7 10.00 Fair CLR 77 66.2 69% 79 29.98 0.0
08 06:53 NW 6 10.00 Fair CLR 73.4 66.2 78% 29.96 0.0
08 06:15 NW 6 10.00 Fair CLR 73.4 66.2 78% 29.95 0.0
08 05:55 NW 6 10.00 Fair CLR 73.4 66.2 78% 29.94 0.0
08 05:35 NW 6 10.00 Fair CLR 75.2 68 78% 76 29.94 0.0
08 05:15 NW 6 10.00 Fair CLR 75.2 68 78% 76 29.94 0.0
08 04:55 NW 6 10.00 Fair CLR 75.2 68 78% 76 29.94 0.0
08 04:35 NW 6 10.00 Fair CLR 75.2 69.8 83% 75 29.94 0.0
08 04:15 NW 6 10.00 Fair CLR 77 71.6 83% 78 29.94 0.0
08 03:35 NW 5 10.00 Fair CLR 77 73.4 89% 78 29.94 0.0
08 03:15 W 3 10.00 Fair CLR 77 73.4 89% 78 29.94 0.0
08 02:55 W 5 10.00 Fair CLR 77 73.4 89% 78 29.94 0.0
08 02:35 W 2 10.00 Fair CLR 77 71.6 83% 78 29.95 0.0
08 02:15 Vrbl 2 10.00 Fair CLR 78.8 73.4 84% 82 29.95 0.0
08 01:55 S 3 10.00 Fair CLR 78.8 73.4 82.8 78.4 84% 82 29.95 0.0
08 01:35 S 3 10.00 Fair CLR 78.8 73.4 84% 82 29.96 0.0
08 01:15 S 6 10.00 Fair CLR 78.8 73.4 84% 82 29.96 0.0
08 00:55 S 7 10.00 Fair CLR 80.6 73.4 79% 85 29.96 0.0
08 00:35 S 6 10.00 Fair CLR 80.6 71.6 74% 85 29.96 0.0
08 00:15 S 5 10.00 Fair CLR 80.6 71.6 74% 85 29.97 0.0
07 23:55 S 6 10.00 Fair CLR 80.6 71.6 74% 85 29.97 0.0
07 23:35 S 8 10.00 Fair CLR 80.6 71.6 74% 85 29.97 0.0
07 19:53 S 9 10.00 A Few Clouds FEW040 82.4 68 62% 85 29.95 0.0
07 18:53 S 12 10.00 Fair CLR 84.2 66.2 55% 87 29.94 0.0
07 16:53 SE 13 G 17 10.00 A Few Clouds FEW040 87.8 69.8 55% 93 29.94 0.0
07 15:53 SE 8 10.00 A Few Clouds FEW040 87.8 69.8 55% 93 29.95 0.0
07 14:53 SE 8 10.00 A Few Clouds FEW040 87.8 69.8 55% 93 29.97 0.0
07 13:53 SE 10 10.00 A Few Clouds FEW036 87.8 71.6 59% 94 29.99 0.0
07 12:53 SE 9 10.00 A Few Clouds FEW036 87.8 71.6 59% 94 30.01 0.0
Date Time (edt) Wind (mph) Vis. (mi.) Weather Sky Cond. Air Dwpt Max. Min. Relative Humidity Wind Chill (°F) Heat Index (°F) altimeter (in) sea level (mb) 1 hr 3 hr 6 hr
6 hour
Temperature (ºF) Pressure Precipitation (in)